Time;durP1;ratioP1;P1;durP2;ratioP2;P2;SDS_P1;SDS_P2;PMS_P1;PMS_P2;Temp;Humidity;BMP_temperature;BMP_pressure;BME280_temperature;BME280_humidity;BME280_pressure;Samples;Min_cycle;Max_cycle;Signal;HPM_P1;HPM_P2
2020/09/12 00:00:23;;;;;;;14.8;13.4;;;;;;;13.27;87.7002;95354.49;;;;
2020/09/12 00:01:23;;;;;;;14.8;13.4;;;;;;;13.27;87.7002;95354.49;;;;
2020/09/12 00:02:24;;;;;;;15.65;14.15;;;;;;;13.15;88.18164;95355.94;;;;
2020/09/12 00:03:24;;;;;;;15.65;14.15;;;;;;;13.15;88.18164;95355.94;;;;
2020/09/12 00:04:25;;;;;;;15.65;14.15;;;;;;;13.15;88.18164;95355.94;;;;
2020/09/12 00:05:25;;;;;;;15.65;14.15;;;;;;;13.15;88.18164;95355.94;;;;
2020/09/12 00:06:26;;;;;;;15.65;14.15;;;;;;;13.15;88.18164;95355.94;;;;
2020/09/12 00:07:26;;;;;;;15.65;14.15;;;;;;;13.15;88.18164;95355.94;;;;
2020/09/12 00:08:27;;;;;;;15.65;14.15;;;;;;;13.15;88.18164;95355.94;;;;
2020/09/12 00:09:27;;;;;;;15.65;14.15;;;;;;;13.15;88.18164;95355.94;;;;
2020/09/12 00:10:28;;;;;;;15.65;14.15;;;;;;;13.15;88.18164;95355.94;;;;
2020/09/12 00:11:28;;;;;;;15.65;14.15;;;;;;;13.15;88.18164;95355.94;;;;
2020/09/12 00:12:29;;;;;;;15.65;14.15;;;;;;;13.15;88.18164;95355.94;;;;
2020/09/12 00:13:29;;;;;;;15.55;14.05;;;;;;;13.08;88.59668;95358.95;;;;
2020/09/12 00:14:30;;;;;;;15.55;14.05;;;;;;;13.08;88.59668;95358.95;;;;
2020/09/12 00:15:30;;;;;;;15.55;14.05;;;;;;;13.08;88.59668;95358.95;;;;
2020/09/12 00:16:31;;;;;;;15.55;14.05;;;;;;;13.08;88.59668;95358.95;;;;
2020/09/12 00:17:31;;;;;;;15.55;14.05;;;;;;;13.08;88.59668;95358.95;;;;
2020/09/12 00:18:32;;;;;;;15.55;14.05;;;;;;;13.08;88.59668;95358.95;;;;
2020/09/12 00:19:32;;;;;;;15.55;14.05;;;;;;;13.08;88.59668;95358.95;;;;
2020/09/12 00:20:32;;;;;;;15.55;14.05;;;;;;;13.08;88.59668;95358.95;;;;
2020/09/12 00:21:33;;;;;;;15.55;14.05;;;;;;;13.08;88.59668;95358.95;;;;
2020/09/12 00:22:35;;;;;;;15.55;14.05;;;;;;;13.08;88.59668;95358.95;;;;
2020/09/12 00:23:37;;;;;;;16;14.45;;;;;;;13;88.98926;95365.61;;;;
2020/09/12 00:24:38;;;;;;;16;14.45;;;;;;;13;88.98926;95365.61;;;;
2020/09/12 00:25:39;;;;;;;16;14.45;;;;;;;13;88.98926;95365.61;;;;
2020/09/12 00:26:39;;;;;;;16;14.45;;;;;;;13;88.98926;95365.61;;;;
2020/09/12 00:27:40;;;;;;;16;14.45;;;;;;;13;88.98926;95365.61;;;;
2020/09/12 00:28:40;;;;;;;16;14.45;;;;;;;13;88.98926;95365.61;;;;
2020/09/12 00:29:41;;;;;;;16;14.45;;;;;;;13;88.98926;95365.61;;;;
2020/09/12 00:30:41;;;;;;;16;14.45;;;;;;;13;88.98926;95365.61;;;;
2020/09/12 00:31:42;;;;;;;16;14.45;;;;;;;13;88.98926;95365.61;;;;
2020/09/12 00:32:42;;;;;;;16;14.45;;;;;;;13;88.98926;95365.61;;;;
2020/09/12 00:33:43;;;;;;;16;14.45;;;;;;;13;88.98926;95365.61;;;;
2020/09/12 00:34:43;;;;;;;16.55;14.95;;;;;;;12.92;89.37891;95369.26;;;;
2020/09/12 00:35:44;;;;;;;16.55;14.95;;;;;;;12.92;89.37891;95369.26;;;;
2020/09/12 00:36:44;;;;;;;16.55;14.95;;;;;;;12.92;89.37891;95369.26;;;;
2020/09/12 00:37:45;;;;;;;16.55;14.95;;;;;;;12.92;89.37891;95369.26;;;;
2020/09/12 00:38:45;;;;;;;16.55;14.95;;;;;;;12.92;89.37891;95369.26;;;;
2020/09/12 00:39:45;;;;;;;16.55;14.95;;;;;;;12.92;89.37891;95369.26;;;;
2020/09/12 00:40:46;;;;;;;16.55;14.95;;;;;;;12.92;89.37891;95369.26;;;;
2020/09/12 00:41:47;;;;;;;16.55;14.95;;;;;;;12.92;89.37891;95369.26;;;;
2020/09/12 00:42:47;;;;;;;16.55;14.95;;;;;;;12.92;89.37891;95369.26;;;;
2020/09/12 00:43:49;;;;;;;16.55;14.95;;;;;;;12.92;89.37891;95369.26;;;;
2020/09/12 00:44:50;;;;;;;16.5;14.6;;;;;;;12.81;89.81641;95368.28;;;;
2020/09/12 00:45:50;;;;;;;16.5;14.6;;;;;;;12.81;89.81641;95368.28;;;;
2020/09/12 00:46:51;;;;;;;16.5;14.6;;;;;;;12.81;89.81641;95368.28;;;;
2020/09/12 00:47:52;;;;;;;16.5;14.6;;;;;;;12.81;89.81641;95368.28;;;;
2020/09/12 00:48:53;;;;;;;16.5;14.6;;;;;;;12.81;89.81641;95368.28;;;;
2020/09/12 00:49:53;;;;;;;16.5;14.6;;;;;;;12.81;89.81641;95368.28;;;;
2020/09/12 00:50:54;;;;;;;16.5;14.6;;;;;;;12.81;89.81641;95368.28;;;;
2020/09/12 00:51:54;;;;;;;16.5;14.6;;;;;;;12.81;89.81641;95368.28;;;;
2020/09/12 00:52:55;;;;;;;16.5;14.6;;;;;;;12.81;89.81641;95368.28;;;;
2020/09/12 00:53:56;;;;;;;16.5;14.6;;;;;;;12.81;89.81641;95368.28;;;;
2020/09/12 00:54:57;;;;;;;16.5;14.6;;;;;;;12.81;89.81641;95368.28;;;;
2020/09/12 00:55:57;;;;;;;16.05;14.35;;;;;;;12.72;90.20313;95366.26;;;;
2020/09/12 00:56:59;;;;;;;16.05;14.35;;;;;;;12.72;90.20313;95366.26;;;;
2020/09/12 00:58:00;;;;;;;16.05;14.35;;;;;;;12.72;90.20313;95366.26;;;;
2020/09/12 00:59:00;;;;;;;16.05;14.35;;;;;;;12.72;90.20313;95366.26;;;;
2020/09/12 01:00:01;;;;;;;16.05;14.35;;;;;;;12.72;90.20313;95366.26;;;;
2020/09/12 01:01:02;;;;;;;16.05;14.35;;;;;;;12.72;90.20313;95366.26;;;;
2020/09/12 01:02:02;;;;;;;16.05;14.35;;;;;;;12.72;90.20313;95366.26;;;;
2020/09/12 01:03:13;;;;;;;16.05;14.35;;;;;;;12.72;90.20313;95366.26;;;;
2020/09/12 01:04:29;;;;;;;16.05;14.35;;;;;;;12.72;90.20313;95366.26;;;;
2020/09/12 01:05:40;;;;;;;16.05;14.35;;;;;;;12.72;90.20313;95366.26;;;;
2020/09/12 01:06:46;;;;;;;15.9;14.3;;;;;;;12.64;90.56445;95368.84;;;;
2020/09/12 01:08:00;;;;;;;15.9;14.3;;;;;;;12.64;90.56445;95368.84;;;;
2020/09/12 01:09:08;;;;;;;15.9;14.3;;;;;;;12.64;90.56445;95368.84;;;;
2020/09/12 01:10:12;;;;;;;15.9;14.3;;;;;;;12.64;90.56445;95368.84;;;;
2020/09/12 01:11:14;;;;;;;15.9;14.3;;;;;;;12.64;90.56445;95368.84;;;;
2020/09/12 01:12:23;;;;;;;15.9;14.3;;;;;;;12.64;90.56445;95368.84;;;;
2020/09/12 01:13:28;;;;;;;15.9;14.3;;;;;;;12.64;90.56445;95368.84;;;;
2020/09/12 01:14:33;;;;;;;15.9;14.3;;;;;;;12.64;90.56445;95368.84;;;;
2020/09/12 01:15:34;;;;;;;15.9;14.3;;;;;;;12.64;90.56445;95368.84;;;;
2020/09/12 01:16:36;;;;;;;15.9;14.3;;;;;;;12.64;90.56445;95368.84;;;;
2020/09/12 01:17:37;;;;;;;15.15;13.65;;;;;;;12.63;90.79785;95369.36;;;;
2020/09/12 01:18:45;;;;;;;15.15;13.65;;;;;;;12.63;90.79785;95369.36;;;;
2020/09/12 01:19:46;;;;;;;15.15;13.65;;;;;;;12.63;90.79785;95369.36;;;;
2020/09/12 01:20:50;;;;;;;15.15;13.65;;;;;;;12.63;90.79785;95369.36;;;;
2020/09/12 01:21:53;;;;;;;15.15;13.65;;;;;;;12.63;90.79785;95369.36;;;;
2020/09/12 01:23:00;;;;;;;15.15;13.65;;;;;;;12.63;90.79785;95369.36;;;;
2020/09/12 01:24:11;;;;;;;15.15;13.65;;;;;;;12.63;90.79785;95369.36;;;;
2020/09/12 01:25:18;;;;;;;15.15;13.65;;;;;;;12.63;90.79785;95369.36;;;;
2020/09/12 01:26:26;;;;;;;15.15;13.65;;;;;;;12.63;90.79785;95369.36;;;;
2020/09/12 01:27:26;;;;;;;15.6;14;;;;;;;12.6;90.83301;95375.81;;;;
2020/09/12 01:28:27;;;;;;;15.6;14;;;;;;;12.6;90.83301;95375.81;;;;
2020/09/12 01:29:31;;;;;;;15.6;14;;;;;;;12.6;90.83301;95375.81;;;;
2020/09/12 01:30:33;;;;;;;15.6;14;;;;;;;12.6;90.83301;95375.81;;;;
2020/09/12 01:31:33;;;;;;;15.6;14;;;;;;;12.6;90.83301;95375.81;;;;
2020/09/12 01:32:34;;;;;;;15.6;14;;;;;;;12.6;90.83301;95375.81;;;;
2020/09/12 01:33:35;;;;;;;15.6;14;;;;;;;12.6;90.83301;95375.81;;;;
2020/09/12 01:34:35;;;;;;;15.6;14;;;;;;;12.6;90.83301;95375.81;;;;
2020/09/12 01:35:36;;;;;;;15.6;14;;;;;;;12.6;90.83301;95375.81;;;;
2020/09/12 01:36:36;;;;;;;15.6;14;;;;;;;12.6;90.83301;95375.81;;;;
2020/09/12 01:37:37;;;;;;;15.6;14;;;;;;;12.6;90.83301;95375.81;;;;
2020/09/12 01:38:38;;;;;;;15.35;13.8;;;;;;;12.54;90.96973;95378.13;;;;
2020/09/12 01:39:38;;;;;;;15.35;13.8;;;;;;;12.54;90.96973;95378.13;;;;
2020/09/12 01:40:39;;;;;;;15.35;13.8;;;;;;;12.54;90.96973;95378.13;;;;
2020/09/12 01:41:39;;;;;;;15.35;13.8;;;;;;;12.54;90.96973;95378.13;;;;
2020/09/12 01:42:40;;;;;;;15.35;13.8;;;;;;;12.54;90.96973;95378.13;;;;
2020/09/12 01:43:41;;;;;;;15.35;13.8;;;;;;;12.54;90.96973;95378.13;;;;
2020/09/12 01:44:41;;;;;;;15.35;13.8;;;;;;;12.54;90.96973;95378.13;;;;
2020/09/12 01:45:42;;;;;;;15.35;13.8;;;;;;;12.54;90.96973;95378.13;;;;
2020/09/12 01:46:42;;;;;;;15.35;13.8;;;;;;;12.54;90.96973;95378.13;;;;
2020/09/12 01:47:43;;;;;;;15.35;13.8;;;;;;;12.54;90.96973;95378.13;;;;
2020/09/12 01:48:43;;;;;;;14.85;13.4;;;;;;;12.46;91.19043;95380.33;;;;
2020/09/12 01:49:44;;;;;;;14.85;13.4;;;;;;;12.46;91.19043;95380.33;;;;
2020/09/12 01:50:44;;;;;;;14.85;13.4;;;;;;;12.46;91.19043;95380.33;;;;
2020/09/12 01:51:45;;;;;;;14.85;13.4;;;;;;;12.46;91.19043;95380.33;;;;
2020/09/12 01:52:46;;;;;;;14.85;13.4;;;;;;;12.46;91.19043;95380.33;;;;
2020/09/12 01:53:46;;;;;;;14.85;13.4;;;;;;;12.46;91.19043;95380.33;;;;
2020/09/12 01:54:47;;;;;;;14.85;13.4;;;;;;;12.46;91.19043;95380.33;;;;
2020/09/12 01:55:47;;;;;;;14.85;13.4;;;;;;;12.46;91.19043;95380.33;;;;
2020/09/12 01:56:47;;;;;;;14.85;13.4;;;;;;;12.46;91.19043;95380.33;;;;
2020/09/12 01:57:48;;;;;;;14.85;13.4;;;;;;;12.46;91.19043;95380.33;;;;
2020/09/12 01:58:48;;;;;;;14.85;13.4;;;;;;;12.46;91.19043;95380.33;;;;
2020/09/12 01:59:49;;;;;;;15.4;14;;;;;;;12.37;91.43848;95376.79;;;;
2020/09/12 02:00:50;;;;;;;15.4;14;;;;;;;12.37;91.43848;95376.79;;;;
2020/09/12 02:01:50;;;;;;;15.4;14;;;;;;;12.37;91.43848;95376.79;;;;
2020/09/12 02:02:51;;;;;;;15.4;14;;;;;;;12.37;91.43848;95376.79;;;;
2020/09/12 02:03:51;;;;;;;15.4;14;;;;;;;12.37;91.43848;95376.79;;;;
2020/09/12 02:04:52;;;;;;;15.4;14;;;;;;;12.37;91.43848;95376.79;;;;
2020/09/12 02:05:52;;;;;;;15.4;14;;;;;;;12.37;91.43848;95376.79;;;;
2020/09/12 02:06:53;;;;;;;15.4;14;;;;;;;12.37;91.43848;95376.79;;;;
2020/09/12 02:07:53;;;;;;;15.4;14;;;;;;;12.37;91.43848;95376.79;;;;
2020/09/12 02:08:54;;;;;;;15.4;14;;;;;;;12.37;91.43848;95376.79;;;;
2020/09/12 02:09:54;;;;;;;15.4;14;;;;;;;12.37;91.43848;95376.79;;;;
2020/09/12 02:10:55;;;;;;;16.05;14.55;;;;;;;12.29;91.73047;95379.05;;;;
2020/09/12 02:11:55;;;;;;;16.05;14.55;;;;;;;12.29;91.73047;95379.05;;;;
2020/09/12 02:12:55;;;;;;;16.05;14.55;;;;;;;12.29;91.73047;95379.05;;;;
2020/09/12 02:13:56;;;;;;;16.05;14.55;;;;;;;12.29;91.73047;95379.05;;;;
2020/09/12 02:14:56;;;;;;;16.05;14.55;;;;;;;12.29;91.73047;95379.05;;;;
2020/09/12 02:15:57;;;;;;;16.05;14.55;;;;;;;12.29;91.73047;95379.05;;;;
2020/09/12 02:16:57;;;;;;;16.05;14.55;;;;;;;12.29;91.73047;95379.05;;;;
2020/09/12 02:17:58;;;;;;;16.05;14.55;;;;;;;12.29;91.73047;95379.05;;;;
2020/09/12 02:18:58;;;;;;;16.05;14.55;;;;;;;12.29;91.73047;95379.05;;;;
2020/09/12 02:19:59;;;;;;;16.05;14.55;;;;;;;12.29;91.73047;95379.05;;;;
2020/09/12 02:20:59;;;;;;;14.75;13.25;;;;;;;12.16;92.17578;95380.19;;;;
2020/09/12 02:22:00;;;;;;;14.75;13.25;;;;;;;12.16;92.17578;95380.19;;;;
2020/09/12 02:23:00;;;;;;;14.75;13.25;;;;;;;12.16;92.17578;95380.19;;;;
2020/09/12 02:24:01;;;;;;;14.75;13.25;;;;;;;12.16;92.17578;95380.19;;;;
2020/09/12 02:25:01;;;;;;;14.75;13.25;;;;;;;12.16;92.17578;95380.19;;;;
2020/09/12 02:26:02;;;;;;;14.75;13.25;;;;;;;12.16;92.17578;95380.19;;;;
2020/09/12 02:27:02;;;;;;;14.75;13.25;;;;;;;12.16;92.17578;95380.19;;;;
2020/09/12 02:28:03;;;;;;;14.75;13.25;;;;;;;12.16;92.17578;95380.19;;;;
2020/09/12 02:29:03;;;;;;;14.75;13.25;;;;;;;12.16;92.17578;95380.19;;;;
2020/09/12 02:30:04;;;;;;;14.75;13.25;;;;;;;12.16;92.17578;95380.19;;;;
2020/09/12 02:31:05;;;;;;;14.75;13.25;;;;;;;12.16;92.17578;95380.19;;;;
2020/09/12 02:32:05;;;;;;;15.75;14.2;;;;;;;12.04;92.66211;95378.49;;;;
2020/09/12 02:33:06;;;;;;;15.75;14.2;;;;;;;12.04;92.66211;95378.49;;;;
2020/09/12 02:34:06;;;;;;;15.75;14.2;;;;;;;12.04;92.66211;95378.49;;;;
2020/09/12 02:35:06;;;;;;;15.75;14.2;;;;;;;12.04;92.66211;95378.49;;;;
2020/09/12 02:36:07;;;;;;;15.75;14.2;;;;;;;12.04;92.66211;95378.49;;;;
2020/09/12 02:37:07;;;;;;;15.75;14.2;;;;;;;12.04;92.66211;95378.49;;;;
2020/09/12 02:38:08;;;;;;;15.75;14.2;;;;;;;12.04;92.66211;95378.49;;;;
2020/09/12 02:39:08;;;;;;;15.75;14.2;;;;;;;12.04;92.66211;95378.49;;;;
2020/09/12 02:40:09;;;;;;;15.75;14.2;;;;;;;12.04;92.66211;95378.49;;;;
2020/09/12 02:41:09;;;;;;;15.75;14.2;;;;;;;12.04;92.66211;95378.49;;;;
2020/09/12 02:42:10;;;;;;;14.3;12.9;;;;;;;11.96;93.00879;95368.04;;;;
2020/09/12 02:43:11;;;;;;;14.3;12.9;;;;;;;11.96;93.00879;95368.04;;;;
2020/09/12 02:44:11;;;;;;;14.3;12.9;;;;;;;11.96;93.00879;95368.04;;;;
2020/09/12 02:45:12;;;;;;;14.3;12.9;;;;;;;11.96;93.00879;95368.04;;;;
2020/09/12 02:46:12;;;;;;;14.3;12.9;;;;;;;11.96;93.00879;95368.04;;;;
2020/09/12 02:47:13;;;;;;;14.3;12.9;;;;;;;11.96;93.00879;95368.04;;;;
2020/09/12 02:48:13;;;;;;;14.3;12.9;;;;;;;11.96;93.00879;95368.04;;;;
2020/09/12 02:49:14;;;;;;;14.3;12.9;;;;;;;11.96;93.00879;95368.04;;;;
2020/09/12 02:50:14;;;;;;;14.3;12.9;;;;;;;11.96;93.00879;95368.04;;;;
2020/09/12 02:51:15;;;;;;;14.3;12.9;;;;;;;11.96;93.00879;95368.04;;;;
2020/09/12 02:52:15;;;;;;;14.3;12.9;;;;;;;11.96;93.00879;95368.04;;;;
2020/09/12 02:53:16;;;;;;;14.8;13.35;;;;;;;11.95;93.13574;95378.59;;;;
2020/09/12 02:54:16;;;;;;;14.8;13.35;;;;;;;11.95;93.13574;95378.59;;;;
2020/09/12 02:55:17;;;;;;;14.8;13.35;;;;;;;11.95;93.13574;95378.59;;;;
2020/09/12 02:56:17;;;;;;;14.8;13.35;;;;;;;11.95;93.13574;95378.59;;;;
2020/09/12 02:57:18;;;;;;;14.8;13.35;;;;;;;11.95;93.13574;95378.59;;;;
2020/09/12 02:58:18;;;;;;;14.8;13.35;;;;;;;11.95;93.13574;95378.59;;;;
2020/09/12 02:59:19;;;;;;;14.8;13.35;;;;;;;11.95;93.13574;95378.59;;;;
2020/09/12 03:00:19;;;;;;;14.8;13.35;;;;;;;11.95;93.13574;95378.59;;;;
2020/09/12 03:01:20;;;;;;;14.8;13.35;;;;;;;11.95;93.13574;95378.59;;;;
2020/09/12 03:02:20;;;;;;;14.8;13.35;;;;;;;11.95;93.13574;95378.59;;;;
2020/09/12 03:03:21;;;;;;;14.8;13.35;;;;;;;11.95;93.13574;95378.59;;;;
2020/09/12 03:04:21;;;;;;;15.4;13.95;;;;;;;11.87;93.3418;95377.61;;;;
2020/09/12 03:05:22;;;;;;;15.4;13.95;;;;;;;11.87;93.3418;95377.61;;;;
2020/09/12 03:06:22;;;;;;;15.4;13.95;;;;;;;11.87;93.3418;95377.61;;;;
2020/09/12 03:07:23;;;;;;;15.4;13.95;;;;;;;11.87;93.3418;95377.61;;;;
2020/09/12 03:08:23;;;;;;;15.4;13.95;;;;;;;11.87;93.3418;95377.61;;;;
2020/09/12 03:09:24;;;;;;;15.4;13.95;;;;;;;11.87;93.3418;95377.61;;;;
2020/09/12 03:10:24;;;;;;;15.4;13.95;;;;;;;11.87;93.3418;95377.61;;;;
2020/09/12 03:11:25;;;;;;;15.4;13.95;;;;;;;11.87;93.3418;95377.61;;;;
2020/09/12 03:12:25;;;;;;;15.4;13.95;;;;;;;11.87;93.3418;95377.61;;;;
2020/09/12 03:13:26;;;;;;;15.4;13.95;;;;;;;11.87;93.3418;95377.61;;;;
2020/09/12 03:14:26;;;;;;;14.85;13.4;;;;;;;11.79;93.75195;95382.06;;;;
2020/09/12 03:15:27;;;;;;;14.85;13.4;;;;;;;11.79;93.75195;95382.06;;;;
2020/09/12 03:16:27;;;;;;;14.85;13.4;;;;;;;11.79;93.75195;95382.06;;;;
2020/09/12 03:17:27;;;;;;;14.85;13.4;;;;;;;11.79;93.75195;95382.06;;;;
2020/09/12 03:18:28;;;;;;;14.85;13.4;;;;;;;11.79;93.75195;95382.06;;;;
2020/09/12 03:19:28;;;;;;;14.85;13.4;;;;;;;11.79;93.75195;95382.06;;;;
2020/09/12 03:20:29;;;;;;;14.85;13.4;;;;;;;11.79;93.75195;95382.06;;;;
2020/09/12 03:21:29;;;;;;;14.85;13.4;;;;;;;11.79;93.75195;95382.06;;;;
2020/09/12 03:22:30;;;;;;;14.85;13.4;;;;;;;11.79;93.75195;95382.06;;;;
2020/09/12 03:23:30;;;;;;;14.85;13.4;;;;;;;11.79;93.75195;95382.06;;;;
2020/09/12 03:24:33;;;;;;;14.85;13.4;;;;;;;11.79;93.75195;95382.06;;;;
2020/09/12 03:25:34;;;;;;;15.3;13.8;;;;;;;11.72;94.06641;95386.38;;;;
2020/09/12 03:26:34;;;;;;;15.3;13.8;;;;;;;11.72;94.06641;95386.38;;;;
2020/09/12 03:27:37;;;;;;;15.3;13.8;;;;;;;11.72;94.06641;95386.38;;;;
2020/09/12 03:28:38;;;;;;;15.3;13.8;;;;;;;11.72;94.06641;95386.38;;;;
2020/09/12 03:29:38;;;;;;;15.3;13.8;;;;;;;11.72;94.06641;95386.38;;;;
2020/09/12 03:30:39;;;;;;;15.3;13.8;;;;;;;11.72;94.06641;95386.38;;;;
2020/09/12 03:31:40;;;;;;;15.3;13.8;;;;;;;11.72;94.06641;95386.38;;;;
2020/09/12 03:32:40;;;;;;;15.3;13.8;;;;;;;11.72;94.06641;95386.38;;;;
2020/09/12 03:33:41;;;;;;;15.3;13.8;;;;;;;11.72;94.06641;95386.38;;;;
2020/09/12 03:34:41;;;;;;;15.3;13.8;;;;;;;11.72;94.06641;95386.38;;;;
2020/09/12 03:35:42;;;;;;;15.4;13.9;;;;;;;11.65;94.31738;95398.81;;;;
2020/09/12 03:36:42;;;;;;;15.4;13.9;;;;;;;11.65;94.31738;95398.81;;;;
2020/09/12 03:37:43;;;;;;;15.4;13.9;;;;;;;11.65;94.31738;95398.81;;;;
2020/09/12 03:38:43;;;;;;;15.4;13.9;;;;;;;11.65;94.31738;95398.81;;;;
2020/09/12 03:39:44;;;;;;;15.4;13.9;;;;;;;11.65;94.31738;95398.81;;;;
2020/09/12 03:40:44;;;;;;;15.4;13.9;;;;;;;11.65;94.31738;95398.81;;;;
2020/09/12 03:41:45;;;;;;;15.4;13.9;;;;;;;11.65;94.31738;95398.81;;;;
2020/09/12 03:42:45;;;;;;;15.4;13.9;;;;;;;11.65;94.31738;95398.81;;;;
2020/09/12 03:43:46;;;;;;;15.4;13.9;;;;;;;11.65;94.31738;95398.81;;;;
2020/09/12 03:44:49;;;;;;;15.4;13.9;;;;;;;11.65;94.31738;95398.81;;;;
2020/09/12 03:45:50;;;;;;;15.4;13.9;;;;;;;11.65;94.31738;95398.81;;;;
2020/09/12 03:46:50;;;;;;;15.4;13.9;;;;;;;11.58;94.59082;95399.86;;;;
2020/09/12 03:47:51;;;;;;;15.4;13.9;;;;;;;11.58;94.59082;95399.86;;;;
2020/09/12 03:48:52;;;;;;;15.4;13.9;;;;;;;11.58;94.59082;95399.86;;;;
2020/09/12 03:49:53;;;;;;;15.4;13.9;;;;;;;11.58;94.59082;95399.86;;;;
2020/09/12 03:50:54;;;;;;;15.4;13.9;;;;;;;11.58;94.59082;95399.86;;;;
2020/09/12 03:51:55;;;;;;;15.4;13.9;;;;;;;11.58;94.59082;95399.86;;;;
2020/09/12 03:52:55;;;;;;;15.4;13.9;;;;;;;11.58;94.59082;95399.86;;;;
2020/09/12 03:53:57;;;;;;;15.4;13.9;;;;;;;11.58;94.59082;95399.86;;;;
2020/09/12 03:54:58;;;;;;;15.4;13.9;;;;;;;11.58;94.59082;95399.86;;;;
2020/09/12 03:55:59;;;;;;;15.4;13.9;;;;;;;11.58;94.59082;95399.86;;;;
2020/09/12 03:57:03;;;;;;;15.25;13.8;;;;;;;11.61;94.74609;95404.78;;;;
2020/09/12 03:58:03;;;;;;;15.25;13.8;;;;;;;11.61;94.74609;95404.78;;;;
2020/09/12 03:59:04;;;;;;;15.25;13.8;;;;;;;11.61;94.74609;95404.78;;;;
2020/09/12 04:00:05;;;;;;;15.25;13.8;;;;;;;11.61;94.74609;95404.78;;;;
2020/09/12 04:01:06;;;;;;;15.25;13.8;;;;;;;11.61;94.74609;95404.78;;;;
2020/09/12 04:02:07;;;;;;;15.25;13.8;;;;;;;11.61;94.74609;95404.78;;;;
2020/09/12 04:03:07;;;;;;;15.25;13.8;;;;;;;11.61;94.74609;95404.78;;;;
2020/09/12 04:04:08;;;;;;;15.25;13.8;;;;;;;11.61;94.74609;95404.78;;;;
2020/09/12 04:05:08;;;;;;;15.25;13.8;;;;;;;11.61;94.74609;95404.78;;;;
2020/09/12 04:06:13;;;;;;;15.25;13.8;;;;;;;11.61;94.74609;95404.78;;;;
2020/09/12 04:07:14;;;;;;;15.25;13.8;;;;;;;11.61;94.74609;95404.78;;;;
2020/09/12 04:08:23;;;;;;;15.25;13.7;;;;;;;11.63;94.68652;95405.89;;;;
2020/09/12 04:09:24;;;;;;;15.25;13.7;;;;;;;11.63;94.68652;95405.89;;;;
2020/09/12 04:10:24;;;;;;;15.25;13.7;;;;;;;11.63;94.68652;95405.89;;;;
2020/09/12 04:11:25;;;;;;;15.25;13.7;;;;;;;11.63;94.68652;95405.89;;;;
2020/09/12 04:12:25;;;;;;;15.25;13.7;;;;;;;11.63;94.68652;95405.89;;;;
2020/09/12 04:13:26;;;;;;;15.25;13.7;;;;;;;11.63;94.68652;95405.89;;;;
2020/09/12 04:14:27;;;;;;;15.25;13.7;;;;;;;11.63;94.68652;95405.89;;;;
2020/09/12 04:15:28;;;;;;;15.25;13.7;;;;;;;11.63;94.68652;95405.89;;;;
2020/09/12 04:16:29;;;;;;;15.25;13.7;;;;;;;11.63;94.68652;95405.89;;;;
2020/09/12 04:17:30;;;;;;;15.25;13.7;;;;;;;11.63;94.68652;95405.89;;;;
2020/09/12 04:18:30;;;;;;;16;14.4;;;;;;;11.59;94.74219;95410.53;;;;
2020/09/12 04:19:37;;;;;;;16;14.4;;;;;;;11.59;94.74219;95410.53;;;;
2020/09/12 04:20:38;;;;;;;16;14.4;;;;;;;11.59;94.74219;95410.53;;;;
2020/09/12 04:21:38;;;;;;;16;14.4;;;;;;;11.59;94.74219;95410.53;;;;
2020/09/12 04:22:39;;;;;;;16;14.4;;;;;;;11.59;94.74219;95410.53;;;;
2020/09/12 04:23:40;;;;;;;16;14.4;;;;;;;11.59;94.74219;95410.53;;;;
2020/09/12 04:24:41;;;;;;;16;14.4;;;;;;;11.59;94.74219;95410.53;;;;
2020/09/12 04:25:42;;;;;;;16;14.4;;;;;;;11.59;94.74219;95410.53;;;;
2020/09/12 04:26:45;;;;;;;16;14.4;;;;;;;11.59;94.74219;95410.53;;;;
2020/09/12 04:27:46;;;;;;;16;14.4;;;;;;;11.59;94.74219;95410.53;;;;
2020/09/12 04:28:54;;;;;;;17.3;15.5;;;;;;;11.47;95.02441;95419.62;;;;
2020/09/12 04:30:03;;;;;;;17.3;15.5;;;;;;;11.47;95.02441;95419.62;;;;
2020/09/12 04:31:03;;;;;;;17.3;15.5;;;;;;;11.47;95.02441;95419.62;;;;
2020/09/12 04:32:05;;;;;;;17.3;15.5;;;;;;;11.47;95.02441;95419.62;;;;
2020/09/12 04:33:06;;;;;;;17.3;15.5;;;;;;;11.47;95.02441;95419.62;;;;
2020/09/12 04:34:10;;;;;;;17.3;15.5;;;;;;;11.47;95.02441;95419.62;;;;
2020/09/12 04:35:12;;;;;;;17.3;15.5;;;;;;;11.47;95.02441;95419.62;;;;
2020/09/12 04:36:13;;;;;;;17.3;15.5;;;;;;;11.47;95.02441;95419.62;;;;
2020/09/12 04:37:14;;;;;;;17.3;15.5;;;;;;;11.47;95.02441;95419.62;;;;
2020/09/12 04:38:15;;;;;;;17.3;15.5;;;;;;;11.47;95.02441;95419.62;;;;
2020/09/12 04:39:15;;;;;;;17.3;15.5;;;;;;;11.47;95.02441;95419.62;;;;
2020/09/12 04:40:16;;;;;;;17;15.2;;;;;;;11.42;95.32324;95417.63;;;;
2020/09/12 04:41:16;;;;;;;17;15.2;;;;;;;11.42;95.32324;95417.63;;;;
2020/09/12 04:42:17;;;;;;;17;15.2;;;;;;;11.42;95.32324;95417.63;;;;
2020/09/12 04:43:21;;;;;;;17;15.2;;;;;;;11.42;95.32324;95417.63;;;;
2020/09/12 04:44:23;;;;;;;17;15.2;;;;;;;11.42;95.32324;95417.63;;;;
2020/09/12 04:45:24;;;;;;;17;15.2;;;;;;;11.42;95.32324;95417.63;;;;
2020/09/12 04:46:26;;;;;;;17;15.2;;;;;;;11.42;95.32324;95417.63;;;;
2020/09/12 04:47:27;;;;;;;17;15.2;;;;;;;11.42;95.32324;95417.63;;;;
2020/09/12 04:48:30;;;;;;;17;15.2;;;;;;;11.42;95.32324;95417.63;;;;
2020/09/12 04:49:31;;;;;;;17;15.2;;;;;;;11.42;95.32324;95417.63;;;;
2020/09/12 04:50:35;;;;;;;17.3;15.6;;;;;;;11.42;95.3877;95428.99;;;;
2020/09/12 04:51:40;;;;;;;17.3;15.6;;;;;;;11.42;95.3877;95428.99;;;;
2020/09/12 04:52:42;;;;;;;17.3;15.6;;;;;;;11.42;95.3877;95428.99;;;;
2020/09/12 04:53:51;;;;;;;17.3;15.6;;;;;;;11.42;95.3877;95428.99;;;;
2020/09/12 04:54:52;;;;;;;17.3;15.6;;;;;;;11.42;95.3877;95428.99;;;;
2020/09/12 04:55:56;;;;;;;17.3;15.6;;;;;;;11.42;95.3877;95428.99;;;;
2020/09/12 04:57:02;;;;;;;17.3;15.6;;;;;;;11.42;95.3877;95428.99;;;;
2020/09/12 04:58:07;;;;;;;17.3;15.6;;;;;;;11.42;95.3877;95428.99;;;;
2020/09/12 04:59:13;;;;;;;17.3;15.6;;;;;;;11.42;95.3877;95428.99;;;;
2020/09/12 05:00:32;;;;;;;17.3;15.6;;;;;;;11.42;95.3877;95428.99;;;;
2020/09/12 05:01:45;;;;;;;17.55;15.7;;;;;;;11.39;95.6582;95436.21;;;;
2020/09/12 05:02:59;;;;;;;17.55;15.7;;;;;;;11.39;95.6582;95436.21;;;;
2020/09/12 05:04:22;;;;;;;17.55;15.7;;;;;;;11.39;95.6582;95436.21;;;;
2020/09/12 05:05:30;;;;;;;17.55;15.7;;;;;;;11.39;95.6582;95436.21;;;;
2020/09/12 05:06:33;;;;;;;17.55;15.7;;;;;;;11.39;95.6582;95436.21;;;;
2020/09/12 05:07:34;;;;;;;17.55;15.7;;;;;;;11.39;95.6582;95436.21;;;;
2020/09/12 05:08:36;;;;;;;17.55;15.7;;;;;;;11.39;95.6582;95436.21;;;;
2020/09/12 05:09:39;;;;;;;17.55;15.7;;;;;;;11.39;95.6582;95436.21;;;;
2020/09/12 05:10:44;;;;;;;17.55;15.7;;;;;;;11.39;95.6582;95436.21;;;;
2020/09/12 05:11:47;;;;;;;18.15;16.35;;;;;;;11.42;95.95215;95454.13;;;;
2020/09/12 05:12:48;;;;;;;18.15;16.35;;;;;;;11.42;95.95215;95454.13;;;;
2020/09/12 05:13:48;;;;;;;18.15;16.35;;;;;;;11.42;95.95215;95454.13;;;;
2020/09/12 05:15:21;;;;;;;18.15;16.35;;;;;;;11.42;95.95215;95454.13;;;;
2020/09/12 05:16:23;;;;;;;18.15;16.35;;;;;;;11.42;95.95215;95454.13;;;;
2020/09/12 05:17:35;;;;;;;18.15;16.35;;;;;;;11.42;95.95215;95454.13;;;;
2020/09/12 05:18:35;;;;;;;18.15;16.35;;;;;;;11.42;95.95215;95454.13;;;;
2020/09/12 05:19:36;;;;;;;18.15;16.35;;;;;;;11.42;95.95215;95454.13;;;;
2020/09/12 05:20:37;;;;;;;18.15;16.35;;;;;;;11.42;95.95215;95454.13;;;;
2020/09/12 05:21:39;;;;;;;18.15;16.35;;;;;;;11.42;95.95215;95454.13;;;;
2020/09/12 05:22:40;;;;;;;19.55;17.65;;;;;;;11.55;96.09863;95458.87;;;;
2020/09/12 05:23:41;;;;;;;19.55;17.65;;;;;;;11.55;96.09863;95458.87;;;;
2020/09/12 05:24:42;;;;;;;19.55;17.65;;;;;;;11.55;96.09863;95458.87;;;;
2020/09/12 05:25:42;;;;;;;19.55;17.65;;;;;;;11.55;96.09863;95458.87;;;;
2020/09/12 05:26:43;;;;;;;19.55;17.65;;;;;;;11.55;96.09863;95458.87;;;;
2020/09/12 05:27:45;;;;;;;19.55;17.65;;;;;;;11.55;96.09863;95458.87;;;;
2020/09/12 05:28:45;;;;;;;19.55;17.65;;;;;;;11.55;96.09863;95458.87;;;;
2020/09/12 05:29:46;;;;;;;19.55;17.65;;;;;;;11.55;96.09863;95458.87;;;;
2020/09/12 05:30:48;;;;;;;19.55;17.65;;;;;;;11.55;96.09863;95458.87;;;;
2020/09/12 05:31:53;;;;;;;19.55;17.65;;;;;;;11.55;96.09863;95458.87;;;;
2020/09/12 05:32:54;;;;;;;20.6;18.55;;;;;;;11.77;96.24121;95465.86;;;;
2020/09/12 05:33:54;;;;;;;20.6;18.55;;;;;;;11.77;96.24121;95465.86;;;;
2020/09/12 05:34:55;;;;;;;20.6;18.55;;;;;;;11.77;96.24121;95465.86;;;;
2020/09/12 05:36:04;;;;;;;20.6;18.55;;;;;;;11.77;96.24121;95465.86;;;;
2020/09/12 05:37:06;;;;;;;20.6;18.55;;;;;;;11.77;96.24121;95465.86;;;;
2020/09/12 05:38:07;;;;;;;20.6;18.55;;;;;;;11.77;96.24121;95465.86;;;;
2020/09/12 05:39:08;;;;;;;20.6;18.55;;;;;;;11.77;96.24121;95465.86;;;;
2020/09/12 05:40:13;;;;;;;20.6;18.55;;;;;;;11.77;96.24121;95465.86;;;;
2020/09/12 05:41:13;;;;;;;20.6;18.55;;;;;;;11.77;96.24121;95465.86;;;;
2020/09/12 05:42:22;;;;;;;20.6;18.55;;;;;;;11.77;96.24121;95465.86;;;;
2020/09/12 05:43:23;;;;;;;20.6;18.55;;;;;;;11.77;96.24121;95465.86;;;;
2020/09/12 05:44:24;;;;;;;21.7;19.4;;;;;;;12.07;96.24609;95468.66;;;;
2020/09/12 05:45:25;;;;;;;21.7;19.4;;;;;;;12.07;96.24609;95468.66;;;;
2020/09/12 05:46:25;;;;;;;21.7;19.4;;;;;;;12.07;96.24609;95468.66;;;;
2020/09/12 05:47:26;;;;;;;21.7;19.4;;;;;;;12.07;96.24609;95468.66;;;;